createdAt,value
2023-03-11T00:03:25.243Z,25.98
2023-03-11T00:07:25.264Z,25.96
2023-03-11T00:11:25.383Z,25.96
2023-03-11T00:15:25.354Z,25.96
2023-03-11T00:19:25.338Z,25.95
2023-03-11T00:23:25.297Z,25.95
2023-03-11T00:27:25.241Z,25.98
2023-03-11T00:31:25.205Z,25.96
2023-03-11T00:35:25.176Z,25.95
2023-03-11T00:39:25.148Z,25.95
2023-03-11T00:43:25.109Z,25.95
2023-03-11T00:47:25.065Z,25.95
2023-03-11T00:51:25.033Z,25.95
2023-03-11T00:55:24.990Z,25.95
2023-03-11T00:59:24.948Z,25.96
2023-03-11T01:03:24.920Z,25.95
2023-03-11T01:07:24.890Z,25.94
2023-03-11T01:11:24.937Z,25.94
2023-03-11T01:15:25.040Z,25.95
2023-03-11T01:19:25.153Z,25.95
2023-03-11T01:23:25.117Z,25.94
2023-03-11T01:27:25.089Z,25.92
2023-03-11T01:31:25.120Z,25.92
2023-03-11T01:35:25.016Z,25.92
2023-03-11T01:39:24.972Z,25.92
2023-03-11T01:43:24.956Z,25.92
2023-03-11T01:47:24.896Z,25.92
2023-03-11T01:51:24.875Z,25.91
2023-03-11T01:55:24.829Z,25.91
2023-03-11T01:59:24.820Z,25.91
2023-03-11T02:03:24.835Z,25.92
2023-03-11T02:07:24.788Z,25.92
2023-03-11T02:11:24.699Z,25.92
2023-03-11T02:15:24.660Z,25.89
2023-03-11T02:19:24.614Z,25.91
2023-03-11T02:23:25.216Z,25.91
2023-03-11T02:27:24.947Z,25.89
2023-03-11T02:31:24.997Z,25.91
2023-03-11T02:35:25.123Z,25.92
2023-03-11T02:39:25.319Z,25.89
2023-03-11T02:43:25.511Z,25.88
2023-03-11T02:47:25.468Z,25.91
2023-03-11T02:51:25.432Z,25.91
2023-03-11T02:55:25.387Z,25.91
2023-03-11T02:59:25.361Z,25.92
2023-03-11T03:03:25.310Z,25.91
2023-03-11T03:07:25.286Z,25.89
2023-03-11T03:11:25.251Z,25.88
2023-03-11T03:15:25.226Z,25.88
2023-03-11T03:19:25.202Z,25.88
2023-03-11T03:23:25.168Z,25.87
2023-03-11T03:27:25.093Z,25.88
2023-03-11T03:31:25.171Z,25.88
2023-03-11T03:35:25.035Z,25.87
2023-03-11T03:39:25.219Z,25.88
2023-03-11T03:43:25.195Z,25.89
2023-03-11T03:47:25.163Z,25.87
2023-03-11T03:51:25.127Z,25.88
2023-03-11T03:55:25.101Z,25.87
2023-03-11T03:59:25.039Z,25.87
2023-03-11T04:03:25.053Z,25.87
2023-03-11T04:07:25.022Z,25.88
2023-03-11T04:11:25.266Z,25.88
2023-03-11T04:15:24.978Z,25.89
2023-03-11T04:19:24.920Z,25.85
2023-03-11T04:23:24.851Z,25.85
2023-03-11T04:27:24.830Z,25.88
2023-03-11T04:31:25.277Z,25.88
2023-03-11T04:35:24.805Z,25.87
2023-03-11T04:39:24.804Z,25.87
2023-03-11T04:43:24.844Z,25.87
2023-03-11T04:47:24.757Z,25.87
2023-03-11T04:51:24.947Z,25.87
2023-03-11T04:55:24.993Z,25.85
2023-03-11T04:59:25.103Z,25.87
2023-03-11T05:03:25.213Z,25.87
2023-03-11T05:07:25.271Z,25.87
2023-03-11T05:11:25.403Z,25.85
2023-03-11T05:15:25.380Z,25.87
2023-03-11T05:19:25.328Z,25.87
2023-03-11T05:23:25.319Z,25.85
2023-03-11T05:27:25.256Z,25.87
2023-03-11T05:31:25.256Z,25.88
2023-03-11T05:35:25.300Z,25.85
2023-03-11T05:39:25.162Z,25.88
2023-03-11T05:43:25.134Z,25.85
2023-03-11T05:47:25.099Z,25.87
2023-03-11T05:51:25.056Z,25.88
2023-03-11T05:55:25.029Z,25.88
2023-03-11T05:59:25.291Z,25.88
2023-03-11T06:03:24.973Z,25.89
2023-03-11T06:07:25.039Z,25.92
2023-03-11T06:11:25.018Z,25.92
2023-03-11T06:15:25.150Z,25.94
2023-03-11T06:19:25.264Z,25.92
2023-03-11T06:23:25.298Z,25.94
2023-03-11T06:27:25.389Z,25.94
2023-03-11T06:31:25.492Z,25.94
2023-03-11T06:35:25.695Z,25.96
2023-03-11T06:39:25.790Z,25.96
2023-03-11T06:43:25.813Z,25.99
2023-03-11T06:47:25.795Z,26.01
2023-03-11T06:51:25.651Z,25.99
2023-03-11T06:55:25.600Z,26.01
2023-03-11T06:59:25.576Z,26.04
2023-03-11T07:03:25.548Z,26.05
2023-03-11T07:07:25.590Z,26.12
2023-03-11T07:11:25.523Z,26.19
2023-03-11T07:15:25.453Z,26.21
2023-03-11T07:19:25.426Z,26.24
2023-03-11T07:23:25.560Z,26.28
2023-03-11T07:27:25.564Z,26.27
2023-03-11T07:31:25.576Z,26.24
2023-03-11T07:35:25.630Z,26.27
2023-03-11T07:39:25.653Z,26.27
2023-03-11T07:43:25.722Z,26.31
2023-03-11T07:47:25.731Z,26.31
2023-03-11T07:51:25.731Z,26.34
2023-03-11T07:55:25.833Z,26.32
2023-03-11T07:59:25.886Z,26.43
2023-03-11T08:03:25.997Z,26.48
2023-03-11T08:07:26.060Z,26.50
2023-03-11T08:11:26.166Z,26.49
2023-03-11T08:15:26.399Z,26.50
2023-03-11T08:19:26.366Z,26.50
2023-03-11T08:23:26.500Z,26.50
2023-03-11T08:27:26.568Z,26.49
2023-03-11T08:31:26.748Z,26.53
2023-03-11T08:35:26.825Z,26.55
2023-03-11T08:39:26.906Z,26.63
2023-03-11T08:43:27.038Z,26.73
2023-03-11T08:47:27.140Z,26.82
2023-03-11T08:51:27.131Z,26.87
2023-03-11T08:55:27.109Z,26.83
2023-03-11T08:59:27.024Z,26.85
2023-03-11T09:03:27.034Z,26.87
2023-03-11T09:07:26.974Z,26.89
2023-03-11T09:11:26.944Z,26.89
2023-03-11T09:15:26.911Z,26.90
2023-03-11T09:19:26.860Z,26.89
2023-03-11T09:23:26.837Z,26.96
2023-03-11T09:27:26.782Z,27.00
2023-03-11T09:31:26.833Z,27.03
2023-03-11T09:35:26.760Z,27.03
2023-03-11T09:39:26.716Z,27.03
2023-03-11T09:43:26.635Z,27.03
2023-03-11T09:47:26.610Z,27.09
2023-03-11T09:51:26.668Z,27.11
2023-03-11T09:55:26.839Z,27.23
2023-03-11T09:59:26.923Z,27.34
2023-03-11T10:03:26.896Z,27.40
2023-03-11T10:07:26.880Z,27.46
2023-03-11T10:11:26.833Z,27.58
2023-03-11T10:15:26.778Z,27.75
2023-03-11T10:19:26.753Z,27.83
2023-03-11T10:23:26.722Z,28.01
2023-03-11T10:27:26.712Z,28.08
2023-03-11T10:31:26.682Z,28.13
2023-03-11T10:35:26.630Z,28.16
2023-03-11T10:39:26.571Z,28.21
2023-03-11T10:43:26.536Z,28.49
2023-03-11T10:47:26.486Z,28.53
2023-03-11T10:51:26.461Z,28.41
2023-03-11T10:55:26.438Z,28.38
2023-03-11T10:59:26.451Z,28.31
2023-03-11T11:03:26.628Z,28.29
2023-03-11T11:07:26.831Z,28.29
2023-03-11T11:11:26.985Z,28.63
2023-03-11T11:15:27.156Z,28.83
2023-03-11T11:19:27.323Z,28.76
2023-03-11T11:23:27.434Z,28.90
2023-03-11T11:27:27.500Z,28.90
2023-03-11T11:31:27.629Z,28.90
2023-03-11T11:35:27.662Z,28.93
2023-03-11T11:39:27.662Z,29.05
2023-03-11T11:43:27.777Z,28.87
2023-03-11T11:47:27.878Z,28.82
2023-03-11T11:51:27.853Z,28.86
2023-03-11T11:55:27.985Z,29.00
2023-03-11T11:59:28.199Z,29.10
2023-03-11T12:03:28.233Z,29.23
2023-03-11T12:07:28.122Z,29.30
2023-03-11T12:11:28.079Z,29.36
2023-03-11T12:15:28.065Z,29.43
2023-03-11T12:19:28.014Z,29.47
2023-03-11T12:23:27.993Z,29.50
2023-03-11T12:27:27.956Z,29.51
2023-03-11T12:31:27.950Z,29.54
2023-03-11T12:35:27.886Z,29.57
2023-03-11T12:39:27.838Z,29.57
2023-03-11T12:43:27.830Z,29.58
2023-03-11T12:47:27.789Z,29.56
2023-03-11T12:51:27.733Z,29.60
2023-03-11T12:55:27.957Z,29.60
2023-03-11T12:59:28.118Z,29.60
2023-03-11T13:03:28.318Z,29.57
2023-03-11T13:07:28.483Z,29.54
2023-03-11T13:11:28.699Z,29.54
2023-03-11T13:15:28.878Z,29.54
2023-03-11T13:19:29.025Z,29.51
2023-03-11T13:23:29.202Z,29.48
2023-03-11T13:27:29.359Z,29.50
2023-03-11T13:31:29.640Z,29.43
2023-03-11T13:35:29.799Z,29.40
2023-03-11T13:39:29.725Z,29.24
2023-03-11T13:43:29.740Z,29.20
2023-03-11T13:47:29.792Z,29.14
2023-03-11T13:51:29.879Z,29.00
2023-03-11T13:55:29.848Z,28.93
2023-03-11T13:59:29.819Z,28.85
2023-03-11T14:03:29.812Z,28.75
2023-03-11T14:07:29.846Z,28.63
2023-03-11T14:11:29.729Z,28.58
2023-03-11T14:15:29.663Z,28.53
2023-03-11T14:19:29.640Z,28.49
2023-03-11T14:23:29.576Z,28.42
2023-03-11T14:27:29.542Z,28.35
2023-03-11T14:31:29.594Z,28.32
2023-03-11T14:35:29.544Z,28.28
2023-03-11T14:39:29.452Z,28.23
2023-03-11T14:43:29.403Z,28.21
2023-03-11T14:47:29.371Z,28.18
2023-03-11T14:51:29.332Z,28.18
2023-03-11T14:55:29.307Z,28.15
2023-03-11T14:59:29.262Z,28.11
2023-03-11T15:03:29.297Z,28.15
2023-03-11T15:07:29.177Z,28.12
2023-03-11T15:11:29.333Z,28.08
2023-03-11T15:15:29.428Z,28.05
2023-03-11T15:19:29.530Z,28.05
2023-03-11T15:23:29.581Z,27.97
2023-03-11T15:27:29.585Z,27.92
2023-03-11T15:31:29.583Z,27.89
2023-03-11T15:35:29.634Z,27.83
2023-03-11T15:39:29.688Z,27.80
2023-03-11T15:43:29.834Z,27.72
2023-03-11T15:47:29.969Z,27.69
2023-03-11T15:51:30.133Z,27.65
2023-03-11T15:55:30.214Z,27.61
2023-03-11T15:59:30.390Z,27.57
2023-03-11T16:03:31.562Z,27.56
2023-03-11T16:07:39.079Z,27.50
2023-03-11T16:11:31.420Z,27.47
2023-03-11T16:15:30.380Z,27.46
2023-03-11T16:19:30.347Z,27.41
2023-03-11T16:23:34.075Z,27.40
2023-03-11T16:27:31.288Z,27.34
2023-03-11T16:31:30.277Z,27.33
2023-03-11T16:35:30.338Z,27.29
2023-03-11T16:39:30.392Z,27.23
2023-03-11T16:43:30.755Z,27.18
2023-03-11T16:47:30.767Z,27.16
2023-03-11T16:51:30.851Z,27.09
2023-03-11T16:55:31.103Z,27.09
2023-03-11T16:59:31.151Z,27.07
2023-03-11T17:03:41.023Z,27.00
2023-03-11T17:07:32.278Z,26.99
2023-03-11T17:11:31.240Z,26.96
2023-03-11T17:15:31.271Z,26.93
2023-03-11T17:19:31.406Z,26.90
2023-03-11T17:23:31.521Z,26.89
2023-03-11T17:27:31.699Z,26.89
2023-03-11T17:31:31.852Z,26.87
2023-03-11T17:35:32.058Z,26.85
2023-03-11T17:39:32.226Z,26.82
2023-03-11T17:43:32.354Z,26.82
2023-03-11T17:47:32.499Z,26.79
2023-03-11T17:51:32.449Z,26.78
2023-03-11T17:55:32.374Z,26.76
2023-03-11T17:59:32.347Z,26.73
2023-03-11T18:03:32.298Z,26.72
2023-03-11T18:07:32.273Z,26.72
2023-03-11T18:11:32.253Z,26.70
2023-03-11T18:15:32.209Z,26.68
2023-03-11T18:19:32.162Z,26.66
2023-03-11T18:23:32.145Z,26.64
2023-03-11T18:27:32.082Z,26.64
2023-03-11T18:31:32.129Z,26.64
2023-03-11T18:35:32.034Z,26.60
2023-03-11T18:39:31.976Z,26.60
2023-03-11T18:43:31.949Z,26.60
2023-03-11T18:47:31.918Z,26.59
2023-03-11T18:51:31.890Z,26.59
2023-03-11T18:55:31.916Z,26.59
2023-03-11T18:59:31.941Z,26.56
2023-03-11T19:03:31.970Z,26.55
2023-03-11T19:07:32.176Z,26.56
2023-03-11T19:11:32.354Z,26.55
2023-03-11T19:15:32.407Z,26.53
2023-03-11T19:19:32.439Z,26.52
2023-03-11T19:23:32.616Z,26.53
2023-03-11T19:27:33.097Z,26.50
2023-03-11T19:31:32.981Z,26.50
2023-03-11T19:35:33.240Z,26.50
2023-03-11T19:39:33.632Z,26.48
2023-03-11T19:43:33.382Z,26.50
2023-03-11T19:47:33.522Z,26.49
2023-03-11T19:51:48.530Z,26.48
2023-03-11T19:55:34.532Z,26.50
2023-03-11T19:59:33.521Z,26.48
2023-03-11T20:03:33.555Z,26.48
2023-03-11T20:07:33.648Z,26.45
2023-03-11T20:11:33.710Z,26.48
2023-03-11T20:15:33.860Z,26.45
2023-03-11T20:19:33.790Z,26.45
2023-03-11T20:23:33.920Z,26.46
2023-03-11T20:27:33.967Z,26.45
2023-03-11T20:31:34.120Z,26.45
2023-03-11T20:35:34.192Z,26.45
2023-03-11T20:39:34.246Z,26.40
2023-03-11T20:43:34.287Z,26.42
2023-03-11T20:47:34.431Z,26.42
2023-03-11T20:51:34.556Z,26.42
2023-03-11T20:55:34.686Z,26.39
2023-03-11T20:59:34.757Z,26.39
2023-03-11T21:03:34.973Z,26.39
2023-03-11T21:07:35.056Z,26.38
2023-03-11T21:11:35.204Z,26.38
2023-03-11T21:15:35.318Z,26.39
2023-03-11T21:19:35.341Z,26.40
2023-03-11T21:23:35.520Z,26.38
2023-03-11T21:27:35.525Z,26.35
2023-03-11T21:31:35.682Z,26.36
2023-03-11T21:35:35.729Z,26.38
2023-03-11T21:39:35.829Z,26.35
2023-03-11T21:43:36.033Z,26.36
2023-03-11T21:47:36.090Z,26.35
2023-03-11T21:51:36.230Z,26.34
2023-03-11T21:55:36.454Z,26.34
2023-03-11T21:59:36.538Z,26.32
2023-03-11T22:03:36.645Z,26.32
2023-03-11T22:07:36.549Z,26.31
2023-03-11T22:11:36.606Z,26.32
2023-03-11T22:15:36.924Z,26.32
2023-03-11T22:19:36.960Z,26.34
2023-03-11T22:23:37.017Z,26.31
2023-03-11T22:27:37.130Z,26.29
2023-03-11T22:31:37.240Z,26.29
2023-03-11T22:35:37.309Z,26.31
2023-03-11T22:39:37.320Z,26.28
2023-03-11T22:43:37.681Z,26.31
2023-03-11T22:47:37.491Z,26.27
2023-03-11T22:51:37.577Z,26.29
2023-03-11T22:55:37.657Z,26.28
2023-03-11T22:59:37.689Z,26.29
2023-03-11T23:03:37.897Z,26.28
2023-03-11T23:07:38.215Z,26.27
2023-03-11T23:11:38.086Z,26.27
2023-03-11T23:15:38.263Z,26.27
2023-03-11T23:19:38.709Z,26.27
2023-03-11T23:23:38.454Z,26.24
2023-03-11T23:27:38.522Z,26.28
2023-03-11T23:31:38.538Z,26.27
2023-03-11T23:35:38.611Z,26.24
2023-03-11T23:39:38.493Z,26.27
2023-03-11T23:43:38.706Z,26.25
2023-03-11T23:47:38.544Z,26.27
2023-03-11T23:51:38.726Z,26.27
2023-03-11T23:55:38.872Z,26.27
2023-03-11T23:59:38.875Z,26.24
